createdAt,value
2022-10-13T00:00:59.082Z,36.20
2022-10-13T00:03:29.574Z,41.55
2022-10-13T00:05:58.599Z,43.90
2022-10-13T00:08:27.627Z,41.55
2022-10-13T00:10:56.657Z,40.53
2022-10-13T00:13:25.837Z,33.88
2022-10-13T00:15:55.289Z,41.78
2022-10-13T00:18:24.912Z,40.95
2022-10-13T00:20:55.479Z,41.17
2022-10-13T00:23:24.839Z,35.72
2022-10-13T00:25:53.869Z,43.03
2022-10-13T00:28:23.030Z,43.88
2022-10-13T00:30:52.093Z,45.53
2022-10-13T00:33:21.287Z,41.78
2022-10-13T00:35:51.411Z,46.92
2022-10-13T00:38:24.330Z,40.60
2022-10-13T00:40:56.649Z,43.38
2022-10-13T00:43:29.147Z,41.08
2022-10-13T00:45:58.131Z,36.63
2022-10-13T00:48:31.496Z,36.53
2022-10-13T00:51:00.632Z,35.30
2022-10-13T00:53:37.574Z,39.78
2022-10-13T00:56:10.625Z,34.53
2022-10-13T00:58:41.302Z,34.63
2022-10-13T01:01:10.452Z,31.45
2022-10-13T01:03:39.797Z,34.13
2022-10-13T01:06:10.151Z,34.03
2022-10-13T01:08:40.608Z,30.17
2022-10-13T01:11:35.129Z,35.58
2022-10-13T01:14:14.865Z,36.78
2022-10-13T01:16:51.949Z,33.65
2022-10-13T01:20:05.796Z,31.55
2022-10-13T01:22:54.261Z,27.13
2022-10-13T01:25:50.391Z,33.58
2022-10-13T01:28:49.426Z,29.73
2022-10-13T01:31:25.795Z,29.13
2022-10-13T01:34:05.365Z,28.55
2022-10-13T01:36:41.021Z,33.13
2022-10-13T01:39:21.852Z,33.45
2022-10-13T01:41:55.593Z,28.48
2022-10-13T01:44:31.000Z,36.67
2022-10-13T01:47:04.119Z,46.17
2022-10-13T01:49:37.181Z,39.45
2022-10-13T01:52:11.624Z,33.15
2022-10-13T01:54:40.860Z,31.33
2022-10-13T01:57:31.804Z,27.42
2022-10-13T02:00:04.026Z,32.10
2022-10-13T02:02:54.736Z,29.85
2022-10-13T02:05:39.808Z,31.95
2022-10-13T02:08:16.708Z,36.53
2022-10-13T02:10:51.814Z,43.53
2022-10-13T02:13:25.832Z,51.33
2022-10-13T02:16:01.123Z,56.50
2022-10-13T02:18:36.970Z,52.40
2022-10-13T02:21:08.316Z,46.08
2022-10-13T02:23:37.584Z,53.67
2022-10-13T02:26:07.166Z,42.60
2022-10-13T02:28:38.589Z,41.13
2022-10-13T02:31:09.628Z,47.30
2022-10-13T02:33:40.040Z,54.03
2022-10-13T02:36:09.301Z,98.43
2022-10-13T02:38:38.341Z,83.22
2022-10-13T02:41:07.581Z,85.65
2022-10-13T02:43:37.976Z,125.57
2022-10-13T02:46:07.270Z,110.00
2022-10-13T02:48:36.324Z,193.77
2022-10-13T02:51:07.177Z,96.25
2022-10-13T02:53:36.217Z,68.07
2022-10-13T02:56:05.385Z,102.63
2022-10-13T02:58:37.749Z,61.20
2022-10-13T03:01:08.385Z,68.32
2022-10-13T03:03:38.146Z,55.22
2022-10-13T03:06:09.557Z,68.55
2022-10-13T03:08:40.323Z,62.83
2022-10-13T03:11:09.451Z,60.40
2022-10-13T03:13:38.526Z,72.25
2022-10-13T03:16:09.409Z,56.58
2022-10-13T03:18:38.449Z,115.40
2022-10-13T03:21:09.033Z,59.28
2022-10-13T03:23:41.485Z,57.92
2022-10-13T03:26:10.584Z,61.33
2022-10-13T03:28:39.785Z,52.47
2022-10-13T03:31:12.244Z,52.63
2022-10-13T03:33:42.145Z,78.32
2022-10-13T03:36:14.428Z,66.05
2022-10-13T03:38:45.139Z,52.25
2022-10-13T03:41:16.645Z,122.45
2022-10-13T03:43:50.322Z,110.53
2022-10-13T03:46:19.820Z,88.47
2022-10-13T03:48:49.603Z,73.07
2022-10-13T03:51:22.753Z,75.90
2022-10-13T03:53:53.640Z,79.18
2022-10-13T03:56:25.827Z,74.75
2022-10-13T03:58:57.795Z,81.10
2022-10-13T04:01:29.822Z,57.75
2022-10-13T04:04:02.321Z,93.70
2022-10-13T04:06:32.978Z,102.57
2022-10-13T04:09:02.050Z,61.80
2022-10-13T04:11:31.398Z,58.92
2022-10-13T04:14:00.838Z,128.40
2022-10-13T04:16:32.455Z,65.05
2022-10-13T04:19:05.215Z,108.95
2022-10-13T04:21:36.548Z,72.90
2022-10-13T04:24:06.809Z,72.72
2022-10-13T04:26:38.001Z,61.30
2022-10-13T04:29:13.658Z,66.35
2022-10-13T04:31:43.951Z,113.60
2022-10-13T04:34:13.587Z,108.47
2022-10-13T04:36:43.972Z,78.85
2022-10-13T04:39:12.986Z,139.60
2022-10-13T04:41:42.341Z,161.15
2022-10-13T04:44:11.686Z,286.05
2022-10-13T04:46:40.737Z,93.75
2022-10-13T04:49:09.748Z,77.22
2022-10-13T04:51:40.536Z,122.20
2022-10-13T04:54:11.237Z,59.05
2022-10-13T04:56:40.281Z,66.28
2022-10-13T04:59:09.300Z,56.75
2022-10-13T05:01:38.352Z,56.10
2022-10-13T05:04:12.442Z,109.43
2022-10-13T05:07:12.469Z,107.68
2022-10-13T05:09:33.833Z,65.82
2022-10-13T05:12:03.089Z,86.05
2022-10-13T05:14:35.019Z,128.23
2022-10-13T05:17:04.521Z,67.18
2022-10-13T05:19:33.568Z,67.30
2022-10-13T05:22:02.685Z,70.78
2022-10-13T05:24:37.417Z,83.18
2022-10-13T05:27:09.805Z,68.35
2022-10-13T05:29:39.590Z,101.40
2022-10-13T05:32:09.446Z,73.22
2022-10-13T05:34:38.620Z,87.85
2022-10-13T05:37:07.646Z,78.38
2022-10-13T05:39:38.011Z,81.32
2022-10-13T05:42:07.061Z,97.38
2022-10-13T05:44:37.528Z,68.70
2022-10-13T05:47:07.702Z,140.30
2022-10-13T05:49:39.815Z,159.25
2022-10-13T05:52:13.480Z,71.30
2022-10-13T05:54:47.261Z,111.32
2022-10-13T05:57:20.106Z,173.02
2022-10-13T05:59:54.653Z,99.05
2022-10-13T06:02:26.748Z,68.40
2022-10-13T06:04:58.561Z,77.50
2022-10-13T06:07:27.685Z,76.38
2022-10-13T06:09:59.572Z,198.95
2022-10-13T06:12:28.551Z,165.40
2022-10-13T06:14:57.612Z,164.95
2022-10-13T06:17:26.757Z,147.10
2022-10-13T06:19:55.907Z,194.75
2022-10-13T06:22:24.961Z,95.43
2022-10-13T06:25:00.265Z,66.68
2022-10-13T06:27:29.569Z,182.38
2022-10-13T06:29:59.428Z,55.25
2022-10-13T06:32:28.456Z,135.05
2022-10-13T06:34:57.489Z,54.38
2022-10-13T06:37:27.590Z,105.45
2022-10-13T06:39:58.265Z,50.22
2022-10-13T06:42:30.874Z,62.05
2022-10-13T06:45:11.804Z,75.40
2022-10-13T06:47:42.586Z,55.03
2022-10-13T06:50:11.729Z,51.88
2022-10-13T06:52:40.804Z,88.03
2022-10-13T06:55:11.477Z,45.53
2022-10-13T06:57:40.568Z,39.83
2022-10-13T07:00:11.565Z,43.42
2022-10-13T07:02:41.122Z,40.95
2022-10-13T07:05:10.630Z,44.83
2022-10-13T07:07:39.646Z,40.65
2022-10-13T07:10:10.843Z,38.95
2022-10-13T07:12:39.905Z,41.28
2022-10-13T07:15:10.130Z,39.58
2022-10-13T07:17:41.638Z,35.47
2022-10-13T07:20:11.778Z,41.75
2022-10-13T07:22:40.849Z,35.88
2022-10-13T07:25:11.660Z,41.65
2022-10-13T07:27:41.114Z,38.40
2022-10-13T07:30:11.257Z,36.33
2022-10-13T07:32:42.130Z,48.33
2022-10-13T07:35:12.244Z,44.85
2022-10-13T07:37:41.327Z,42.90
2022-10-13T07:40:13.068Z,40.75
2022-10-13T07:42:42.126Z,38.45
2022-10-13T07:45:12.379Z,37.28
2022-10-13T07:47:41.399Z,37.45
2022-10-13T07:50:11.956Z,37.65
2022-10-13T07:52:40.992Z,33.50
2022-10-13T07:55:14.789Z,31.75
2022-10-13T07:57:43.862Z,28.00
2022-10-13T08:00:14.208Z,36.05
2022-10-13T08:02:43.369Z,27.73
2022-10-13T08:05:12.456Z,29.67
2022-10-13T08:07:41.666Z,27.02
2022-10-13T08:10:11.117Z,24.27
2022-10-13T08:12:41.700Z,27.38
2022-10-13T08:15:12.045Z,24.40
2022-10-13T08:17:41.128Z,26.48
2022-10-13T08:20:11.148Z,27.42
2022-10-13T08:22:40.461Z,31.55
2022-10-13T08:25:10.756Z,28.15
2022-10-13T08:27:51.169Z,32.22
2022-10-13T08:30:21.255Z,28.73
2022-10-13T08:32:50.625Z,25.85
2022-10-13T08:35:19.642Z,34.58
2022-10-13T08:37:48.723Z,38.70
2022-10-13T08:40:23.056Z,32.17
2022-10-13T08:42:58.074Z,36.67
2022-10-13T08:45:46.931Z,34.78
2022-10-13T08:48:19.881Z,35.65
2022-10-13T08:50:52.591Z,38.10
2022-10-13T08:53:30.784Z,41.28
2022-10-13T08:56:03.942Z,37.15
2022-10-13T08:58:40.041Z,35.67
2022-10-13T09:01:16.370Z,31.58
2022-10-13T09:03:55.559Z,31.50
2022-10-13T09:06:28.794Z,34.38
2022-10-13T09:09:01.545Z,37.05
2022-10-13T09:11:33.941Z,36.88
2022-10-13T09:14:07.476Z,33.95
2022-10-13T09:16:40.027Z,35.88
2022-10-13T09:19:22.880Z,37.55
2022-10-13T09:21:54.086Z,36.55
2022-10-13T09:24:26.511Z,32.17
2022-10-13T09:27:08.048Z,34.40
2022-10-13T09:29:43.718Z,32.67
2022-10-13T09:32:19.757Z,36.38
2022-10-13T09:34:50.031Z,31.05
2022-10-13T09:37:22.610Z,29.27
2022-10-13T09:40:15.321Z,31.98
2022-10-13T09:42:52.924Z,32.83
2022-10-13T09:45:27.728Z,29.63
2022-10-13T09:48:03.819Z,34.13
2022-10-13T09:50:36.025Z,36.85
2022-10-13T09:53:22.357Z,37.67
2022-10-13T09:55:52.669Z,30.42
2022-10-13T09:58:29.248Z,30.75
2022-10-13T10:01:01.007Z,32.75
2022-10-13T10:03:36.772Z,42.45
2022-10-13T10:09:02.606Z,32.83
2022-10-13T10:11:38.995Z,34.15
2022-10-13T10:14:18.469Z,35.85
2022-10-13T10:17:00.739Z,41.33
2022-10-13T10:19:45.235Z,31.95
2022-10-13T10:22:24.744Z,32.08
2022-10-13T10:25:01.448Z,34.63
2022-10-13T10:27:42.869Z,32.08
2022-10-13T10:30:17.610Z,31.95
2022-10-13T10:32:55.094Z,27.85
2022-10-13T10:35:41.044Z,35.70
2022-10-13T10:38:27.235Z,31.55
2022-10-13T10:41:06.387Z,34.60
2022-10-13T10:43:53.195Z,28.33
2022-10-13T10:46:25.428Z,30.70
2022-10-13T10:49:01.666Z,27.90
2022-10-13T10:51:36.714Z,36.70
2022-10-13T10:54:27.852Z,39.60
2022-10-13T10:57:03.393Z,32.63
2022-10-13T10:59:50.212Z,31.48
2022-10-13T11:02:45.951Z,33.80
2022-10-13T11:05:18.794Z,31.15
2022-10-13T11:08:01.159Z,35.22
2022-10-13T11:10:30.776Z,39.08
2022-10-13T11:13:25.884Z,30.15
2022-10-13T11:15:57.322Z,37.50
2022-10-13T11:19:07.365Z,34.60
2022-10-13T11:22:20.875Z,31.77
2022-10-13T11:25:08.825Z,32.47
2022-10-13T11:27:47.293Z,37.80
2022-10-13T11:30:51.563Z,33.38
2022-10-13T11:33:59.255Z,32.67
2022-10-13T11:36:49.343Z,35.55
2022-10-13T11:40:06.958Z,32.05
2022-10-13T11:43:17.428Z,33.13
2022-10-13T11:46:26.421Z,32.10
2022-10-13T11:49:44.973Z,42.65
2022-10-13T11:52:49.970Z,35.42
2022-10-13T11:55:39.375Z,27.40
2022-10-13T11:58:17.338Z,29.65
2022-10-13T12:01:00.159Z,33.20
2022-10-13T12:03:32.552Z,34.90
2022-10-13T12:06:07.503Z,27.80
2022-10-13T12:08:39.307Z,25.17
2022-10-13T12:11:26.626Z,29.45
2022-10-13T12:13:57.044Z,29.40
2022-10-13T12:16:31.251Z,25.10
2022-10-13T12:19:20.232Z,32.80
2022-10-13T12:21:52.447Z,26.83
2022-10-13T12:24:26.823Z,24.38
2022-10-13T12:26:59.218Z,25.38
2022-10-13T12:29:37.395Z,26.15
2022-10-13T12:32:21.017Z,27.00
2022-10-13T12:34:55.067Z,26.70
2022-10-13T12:37:33.557Z,25.33
2022-10-13T12:40:04.729Z,22.92
2022-10-13T12:42:39.745Z,33.83
2022-10-13T12:45:16.703Z,27.83
2022-10-13T12:47:52.334Z,28.88
2022-10-13T12:50:39.572Z,30.98
2022-10-13T12:53:20.163Z,29.65
2022-10-13T12:55:58.830Z,26.92
2022-10-13T12:58:32.163Z,25.05
2022-10-13T13:01:33.281Z,24.27
2022-10-13T13:04:17.205Z,48.95
2022-10-13T13:06:57.560Z,24.48
2022-10-13T13:09:29.508Z,24.35
2022-10-13T13:12:27.559Z,24.48
2022-10-13T13:14:58.462Z,23.55
2022-10-13T13:17:53.352Z,28.70
2022-10-13T13:20:27.001Z,29.50
2022-10-13T13:22:56.817Z,24.80
2022-10-13T13:25:26.906Z,22.45
2022-10-13T13:27:55.995Z,20.55
2022-10-13T13:30:27.401Z,20.05
2022-10-13T13:32:56.404Z,24.58
2022-10-13T13:35:25.407Z,15.13
2022-10-13T13:37:58.488Z,22.48
2022-10-13T13:40:29.390Z,19.48
2022-10-13T13:42:58.437Z,16.98
2022-10-13T13:45:35.858Z,28.48
2022-10-13T13:48:05.937Z,20.10
2022-10-13T13:50:37.792Z,20.17
2022-10-13T13:53:07.335Z,21.10
2022-10-13T13:55:36.686Z,20.70
2022-10-13T13:58:07.588Z,18.17
2022-10-13T14:00:38.493Z,19.58
2022-10-13T14:03:07.697Z,20.85
2022-10-13T14:05:40.613Z,16.63
2022-10-13T14:08:10.930Z,17.88
2022-10-13T14:10:41.359Z,18.70
2022-10-13T14:13:10.368Z,13.77
2022-10-13T14:15:40.793Z,14.80
2022-10-13T14:18:09.845Z,17.63
2022-10-13T14:20:42.538Z,16.88
2022-10-13T14:23:11.639Z,20.45
2022-10-13T14:25:40.662Z,18.50
2022-10-13T14:28:12.494Z,16.58
2022-10-13T14:30:45.038Z,13.55
2022-10-13T14:33:19.245Z,18.90
2022-10-13T14:35:48.340Z,18.10
2022-10-13T14:38:18.627Z,18.10
2022-10-13T14:40:49.916Z,15.88
2022-10-13T14:43:19.025Z,19.58
2022-10-13T14:45:49.501Z,19.23
2022-10-13T14:48:22.630Z,15.80
2022-10-13T14:50:53.688Z,17.67
2022-10-13T14:53:24.592Z,17.90
2022-10-13T14:55:54.063Z,18.48
2022-10-13T14:58:23.043Z,21.00
2022-10-13T15:00:53.740Z,21.25
2022-10-13T15:03:22.996Z,19.63
2022-10-13T15:05:52.109Z,20.92
2022-10-13T15:08:25.513Z,16.33
2022-10-13T15:11:00.840Z,17.13
2022-10-13T15:13:30.443Z,16.45
2022-10-13T15:16:02.579Z,19.73
2022-10-13T15:18:32.042Z,22.25
2022-10-13T15:21:01.290Z,20.73
2022-10-13T15:23:30.416Z,21.02
2022-10-13T15:26:01.467Z,18.83
2022-10-13T15:28:35.732Z,20.38
2022-10-13T15:31:06.851Z,25.15
2022-10-13T15:33:36.435Z,21.60
2022-10-13T15:36:05.974Z,24.80
2022-10-13T15:38:35.641Z,27.80
2022-10-13T15:41:06.920Z,23.95
2022-10-13T15:43:36.257Z,21.58
2022-10-13T15:46:09.606Z,28.25
2022-10-13T15:48:38.836Z,25.58
2022-10-13T15:51:14.815Z,24.92
2022-10-13T15:53:44.023Z,30.40
2022-10-13T15:56:13.157Z,26.80
2022-10-13T15:58:42.418Z,27.48
2022-10-13T16:01:15.154Z,25.70
2022-10-13T16:03:44.284Z,27.58
2022-10-13T16:06:14.416Z,25.35
2022-10-13T16:08:44.795Z,26.70
2022-10-13T16:11:16.862Z,37.40
2022-10-13T16:13:47.832Z,39.13
2022-10-13T16:16:19.110Z,34.97
2022-10-13T16:18:48.205Z,37.38
2022-10-13T16:21:20.146Z,34.35
2022-10-13T16:23:50.150Z,30.10
2022-10-13T16:26:19.424Z,32.58
2022-10-13T16:28:48.719Z,30.02
2022-10-13T16:31:19.191Z,28.35
2022-10-13T16:33:48.220Z,33.58
2022-10-13T16:36:19.345Z,36.22
2022-10-13T16:38:54.766Z,31.55
2022-10-13T16:41:24.633Z,34.67
2022-10-13T16:43:53.683Z,35.53
2022-10-13T16:46:24.253Z,36.63
2022-10-13T16:48:53.320Z,29.75
2022-10-13T16:51:25.178Z,30.55
2022-10-13T16:54:02.805Z,32.25
2022-10-13T16:56:33.591Z,31.33
2022-10-13T16:59:05.530Z,35.13
2022-10-13T17:01:37.330Z,50.72
2022-10-13T17:04:07.525Z,44.78
2022-10-13T17:06:38.693Z,40.78
2022-10-13T17:09:07.772Z,40.97
2022-10-13T17:11:37.338Z,44.42
2022-10-13T17:14:07.406Z,31.08
2022-10-13T17:16:37.945Z,26.92
2022-10-13T17:19:07.330Z,30.00
2022-10-13T17:21:38.379Z,32.47
2022-10-13T17:24:10.967Z,31.45
2022-10-13T17:26:40.375Z,36.38
2022-10-13T17:29:09.438Z,42.05
2022-10-13T17:31:39.957Z,43.97
2022-10-13T17:34:09.334Z,49.65
2022-10-13T17:36:38.444Z,54.55
2022-10-13T17:39:12.170Z,57.40
2022-10-13T17:41:43.988Z,54.08
2022-10-13T17:44:13.001Z,45.60
2022-10-13T17:46:43.469Z,41.17
2022-10-13T17:49:13.861Z,38.10
2022-10-13T17:51:44.816Z,42.13
2022-10-13T17:54:16.426Z,44.78
2022-10-13T17:56:46.305Z,47.22
2022-10-13T17:59:16.412Z,47.78
2022-10-13T18:01:47.128Z,45.13
2022-10-13T18:04:19.845Z,51.03
2022-10-13T18:06:49.073Z,44.97
2022-10-13T18:09:23.309Z,41.05
2022-10-13T18:11:55.187Z,39.60
2022-10-13T18:14:26.028Z,51.85
2022-10-13T18:16:56.511Z,40.95
2022-10-13T18:19:25.645Z,43.55
2022-10-13T18:21:54.911Z,45.10
2022-10-13T18:24:25.119Z,56.53
2022-10-13T18:26:57.012Z,57.78
2022-10-13T18:29:26.206Z,58.08
2022-10-13T18:31:57.490Z,56.30
2022-10-13T18:34:26.572Z,47.55
2022-10-13T18:36:56.061Z,47.35
2022-10-13T18:39:27.293Z,50.92
2022-10-13T18:41:58.010Z,51.53
2022-10-13T18:44:36.121Z,47.63
2022-10-13T18:47:07.012Z,64.50
2022-10-13T18:49:36.038Z,58.92
2022-10-13T18:52:05.557Z,58.28
2022-10-13T18:54:38.737Z,62.20
2022-10-13T18:57:08.131Z,56.35
2022-10-13T18:59:38.796Z,58.50
2022-10-13T19:02:14.531Z,63.20
2022-10-13T19:04:44.240Z,61.17
2022-10-13T19:07:13.293Z,61.13
2022-10-13T19:09:42.503Z,65.05
2022-10-13T19:12:11.650Z,69.47
2022-10-13T19:14:40.955Z,61.42
2022-10-13T19:17:11.778Z,60.65
2022-10-13T19:19:41.521Z,65.00
2022-10-13T19:22:12.454Z,62.63
2022-10-13T19:24:41.730Z,67.13
2022-10-13T19:27:11.718Z,69.93
2022-10-13T19:29:41.931Z,69.55
2022-10-13T19:32:14.216Z,65.28
2022-10-13T19:34:43.509Z,66.30
2022-10-13T19:37:16.423Z,55.50
2022-10-13T19:39:45.466Z,51.25
2022-10-13T19:42:14.599Z,45.70
2022-10-13T19:44:44.480Z,56.13
2022-10-13T19:47:14.911Z,49.00
2022-10-13T19:49:43.946Z,49.17
2022-10-13T19:52:12.932Z,47.92
2022-10-13T19:54:42.533Z,44.25
2022-10-13T19:57:11.606Z,48.20
2022-10-13T19:59:45.302Z,50.05
2022-10-13T20:02:19.513Z,51.55
2022-10-13T20:04:48.715Z,55.63
2022-10-13T20:07:17.936Z,47.15
2022-10-13T20:09:47.398Z,54.15
2022-10-13T20:12:16.457Z,55.45
2022-10-13T20:14:48.609Z,51.22
2022-10-13T20:17:19.290Z,57.78
2022-10-13T20:19:48.672Z,61.08
2022-10-13T20:22:17.714Z,63.90
2022-10-13T20:24:46.916Z,57.85
2022-10-13T20:27:16.006Z,59.08
2022-10-13T20:29:45.032Z,67.03
2022-10-13T20:32:15.200Z,66.95
2022-10-13T20:34:45.713Z,71.38
2022-10-13T20:37:14.857Z,69.28
2022-10-13T20:39:44.157Z,62.70
2022-10-13T20:42:15.732Z,67.03
2022-10-13T20:44:44.934Z,63.38
2022-10-13T20:47:14.077Z,66.75
2022-10-13T20:49:43.498Z,62.78
2022-10-13T20:52:13.889Z,65.53
2022-10-13T20:54:43.052Z,68.43
2022-10-13T20:57:12.221Z,67.10
2022-10-13T20:59:41.402Z,69.07
2022-10-13T21:02:13.859Z,63.50
2022-10-13T21:04:43.068Z,65.05
2022-10-13T21:07:13.604Z,70.70
2022-10-13T21:09:42.752Z,75.97
2022-10-13T21:12:11.816Z,78.78
2022-10-13T21:14:40.906Z,74.28
2022-10-13T21:17:11.501Z,77.65
2022-10-13T21:19:40.752Z,71.00
2022-10-13T21:22:09.849Z,63.90
2022-10-13T21:24:40.316Z,68.22
2022-10-13T21:27:09.315Z,69.75
2022-10-13T21:29:38.421Z,72.43
2022-10-13T21:32:07.621Z,70.68
2022-10-13T21:34:37.487Z,66.47
2022-10-13T21:37:06.529Z,70.65
2022-10-13T21:39:35.812Z,69.43
2022-10-13T21:42:06.596Z,65.70
2022-10-13T21:44:35.659Z,66.97
2022-10-13T21:47:08.292Z,71.72
2022-10-13T21:49:37.688Z,64.72
2022-10-13T21:52:06.800Z,71.22
2022-10-13T21:54:35.937Z,65.07
2022-10-13T21:57:06.382Z,66.25
2022-10-13T21:59:35.504Z,65.47
2022-10-13T22:02:04.673Z,63.65
2022-10-13T22:04:33.788Z,63.70
2022-10-13T22:07:03.032Z,67.20
2022-10-13T22:09:32.784Z,67.05
2022-10-13T22:12:02.239Z,72.18
2022-10-13T22:14:33.449Z,75.00
2022-10-13T22:17:07.885Z,68.72
2022-10-13T22:19:37.084Z,72.13
2022-10-13T22:22:06.242Z,74.60
2022-10-13T22:24:35.291Z,80.15
2022-10-13T22:27:04.619Z,77.40
2022-10-13T22:29:35.367Z,73.45
2022-10-13T22:32:04.519Z,67.15
2022-10-13T22:34:33.553Z,68.82
2022-10-13T22:37:02.933Z,66.85
2022-10-13T22:39:33.872Z,68.93
2022-10-13T22:42:10.461Z,57.92
2022-10-13T22:44:43.624Z,57.88
2022-10-13T22:47:12.745Z,62.40
2022-10-13T22:49:41.739Z,60.75
2022-10-13T22:52:11.496Z,63.03
2022-10-13T22:54:40.572Z,66.20
2022-10-13T22:57:11.729Z,64.43
2022-10-13T22:59:42.363Z,57.88
2022-10-13T23:02:11.490Z,71.97
2022-10-13T23:04:40.859Z,58.55
2022-10-13T23:07:09.905Z,61.50
2022-10-13T23:09:38.901Z,66.88
2022-10-13T23:12:10.956Z,65.82
2022-10-13T23:14:41.396Z,63.58
2022-10-13T23:17:10.490Z,59.28
2022-10-13T23:19:39.509Z,66.47
2022-10-13T23:22:11.672Z,72.95
2022-10-13T23:24:40.624Z,64.18
2022-10-13T23:27:09.622Z,73.00
2022-10-13T23:29:38.689Z,64.20
2022-10-13T23:32:10.064Z,63.70
2022-10-13T23:34:39.205Z,63.53
2022-10-13T23:37:09.497Z,64.15
2022-10-13T23:39:39.044Z,65.22
2022-10-13T23:42:11.162Z,61.67
2022-10-13T23:44:40.288Z,64.53
2022-10-13T23:47:10.688Z,66.28
2022-10-13T23:49:39.893Z,70.63
2022-10-13T23:52:11.083Z,55.03
2022-10-13T23:54:40.302Z,61.42
2022-10-13T23:57:09.326Z,66.15
2022-10-13T23:59:38.387Z,69.40
